createdAt,value
2023-01-30T00:00:57.388Z,1007.71
2023-01-30T00:01:57.422Z,1007.65
2023-01-30T00:02:57.386Z,1007.60
2023-01-30T00:03:57.384Z,1007.76
2023-01-30T00:04:57.410Z,1007.59
2023-01-30T00:05:57.345Z,1007.65
2023-01-30T00:06:57.332Z,1007.59
2023-01-30T00:07:57.311Z,1007.48
2023-01-30T00:08:57.321Z,1007.43
2023-01-30T00:09:57.455Z,1007.64
2023-01-30T00:10:57.284Z,1007.33
2023-01-30T00:11:57.275Z,1007.35
2023-01-30T00:12:57.275Z,1007.26
2023-01-30T00:13:57.306Z,1007.26
2023-01-30T00:14:57.274Z,1007.23
2023-01-30T00:15:57.287Z,1007.27
2023-01-30T00:16:57.265Z,1007.20
2023-01-30T00:17:57.228Z,1007.14
2023-01-30T00:18:57.231Z,1007.10
2023-01-30T00:19:57.188Z,1007.09
2023-01-30T00:20:57.196Z,1007.08
2023-01-30T00:21:57.163Z,1007.03
2023-01-30T00:23:00.989Z,1007.03
2023-01-30T00:23:57.176Z,1007.04
2023-01-30T00:24:57.245Z,1007.02
2023-01-30T00:25:57.128Z,1007.04
2023-01-30T00:26:57.116Z,1007.02
2023-01-30T00:27:57.134Z,1006.93
2023-01-30T00:28:57.088Z,1006.94
2023-01-30T00:30:02.823Z,1006.79
2023-01-30T00:30:58.497Z,1006.77
2023-01-30T00:31:57.090Z,1006.81
2023-01-30T00:32:57.055Z,1006.69
2023-01-30T00:33:57.045Z,1006.67
2023-01-30T00:34:57.029Z,1006.65
2023-01-30T00:35:57.069Z,1006.62
2023-01-30T00:37:57.992Z,1006.42
2023-01-30T00:38:57.010Z,1006.38
2023-01-30T00:39:56.975Z,1006.40
2023-01-30T00:40:56.958Z,1006.45
2023-01-30T00:41:56.981Z,1006.30
2023-01-30T00:42:56.945Z,1006.25
2023-01-30T00:43:56.946Z,1006.09
2023-01-30T00:44:56.925Z,1006.26
2023-01-30T00:45:56.973Z,1006.11
2023-01-30T00:46:56.901Z,1006.17
2023-01-30T00:47:56.904Z,1006.06
2023-01-30T00:49:06.286Z,1005.91
2023-01-30T00:49:56.864Z,1005.94
2023-01-30T00:50:56.886Z,1005.89
2023-01-30T00:51:56.837Z,1005.79
2023-01-30T00:52:56.828Z,1005.75
2023-01-30T00:53:56.815Z,1005.92
2023-01-30T00:54:56.802Z,1005.87
2023-01-30T00:55:56.830Z,1005.87
2023-01-30T00:56:56.792Z,1005.80
2023-01-30T00:57:56.819Z,1005.66
2023-01-30T00:58:56.764Z,1005.68
2023-01-30T00:59:56.753Z,1005.59
2023-01-30T01:00:56.750Z,1005.60
2023-01-30T01:01:56.760Z,1005.59
2023-01-30T01:02:56.760Z,1005.60
2023-01-30T01:03:56.741Z,1005.69
2023-01-30T01:04:56.707Z,1005.67
2023-01-30T01:05:56.686Z,1005.69
2023-01-30T01:06:56.694Z,1005.76
2023-01-30T01:07:56.689Z,1005.68
2023-01-30T01:08:56.684Z,1005.68
2023-01-30T01:09:56.651Z,1005.63
2023-01-30T01:10:56.635Z,1005.58
2023-01-30T01:11:56.656Z,1005.60
2023-01-30T01:12:56.616Z,1005.63
2023-01-30T01:13:56.609Z,1005.58
2023-01-30T01:14:56.593Z,1005.56
2023-01-30T01:15:56.699Z,1005.63
2023-01-30T01:16:56.571Z,1005.48
2023-01-30T01:17:56.559Z,1005.41
2023-01-30T01:18:56.580Z,1005.39
2023-01-30T01:19:56.557Z,1005.17
2023-01-30T01:20:56.537Z,1005.01
2023-01-30T01:21:56.526Z,1004.93
2023-01-30T01:22:56.526Z,1004.92
2023-01-30T01:23:56.515Z,1004.91
2023-01-30T01:24:56.519Z,1004.95
2023-01-30T01:25:56.474Z,1004.97
2023-01-30T01:26:56.476Z,1005.01
2023-01-30T01:27:56.466Z,1004.98
2023-01-30T01:28:56.444Z,1005.01
2023-01-30T01:29:56.464Z,1005.02
2023-01-30T01:30:56.454Z,1005.03
2023-01-30T01:31:56.450Z,1004.95
2023-01-30T01:32:56.402Z,1004.96
2023-01-30T01:33:56.404Z,1004.96
2023-01-30T01:34:56.413Z,1004.97
2023-01-30T01:35:56.383Z,1004.96
2023-01-30T01:36:56.437Z,1005.02
2023-01-30T01:37:56.357Z,1004.87
2023-01-30T01:38:56.354Z,1004.88
2023-01-30T01:39:56.366Z,1004.89
2023-01-30T01:40:56.357Z,1004.99
2023-01-30T01:41:56.325Z,1004.99
2023-01-30T01:42:56.307Z,1005.08
2023-01-30T01:43:56.298Z,1005.04
2023-01-30T01:44:56.285Z,1005.10
2023-01-30T01:45:56.510Z,1005.04
2023-01-30T01:46:56.280Z,1005.15
2023-01-30T01:47:56.261Z,1005.19
2023-01-30T01:48:56.243Z,1005.10
2023-01-30T01:49:56.232Z,1005.01
2023-01-30T01:50:56.256Z,1005.06
2023-01-30T01:51:56.223Z,1005.02
2023-01-30T01:52:56.201Z,1005.07
2023-01-30T01:53:56.191Z,1005.01
2023-01-30T01:54:56.185Z,1005.08
2023-01-30T01:55:56.197Z,1004.90
2023-01-30T01:56:56.167Z,1005.03
2023-01-30T01:57:56.145Z,1004.87
2023-01-30T01:58:56.144Z,1004.81
2023-01-30T01:59:56.122Z,1004.91
2023-01-30T02:00:56.184Z,1004.70
2023-01-30T02:01:56.194Z,1004.75
2023-01-30T02:02:56.099Z,1004.54
2023-01-30T02:03:56.077Z,1004.52
2023-01-30T02:04:56.067Z,1004.58
2023-01-30T02:05:56.054Z,1004.64
2023-01-30T02:06:56.062Z,1004.44
2023-01-30T02:07:56.054Z,1004.30
2023-01-30T02:08:56.041Z,1004.31
2023-01-30T02:09:56.042Z,1004.26
2023-01-30T02:10:56.009Z,1004.28
2023-01-30T02:11:56.001Z,1004.07
2023-01-30T02:12:56.007Z,1004.30
2023-01-30T02:13:55.999Z,1004.17
2023-01-30T02:14:55.972Z,1004.21
2023-01-30T02:15:55.964Z,1004.19
2023-01-30T02:16:55.942Z,1004.09
2023-01-30T02:17:55.959Z,1004.13
2023-01-30T02:18:55.932Z,1004.09
2023-01-30T02:19:55.935Z,1004.10
2023-01-30T02:20:55.903Z,1003.95
2023-01-30T02:21:55.888Z,1004.03
2023-01-30T02:22:55.902Z,1003.90
2023-01-30T02:23:55.869Z,1003.82
2023-01-30T02:24:55.860Z,1003.73
2023-01-30T02:25:56.606Z,1003.58
2023-01-30T02:26:55.844Z,1003.62
2023-01-30T02:27:55.852Z,1003.64
2023-01-30T02:28:55.828Z,1003.65
2023-01-30T02:29:55.831Z,1003.57
2023-01-30T02:30:55.903Z,1003.64
2023-01-30T02:31:55.807Z,1003.66
2023-01-30T02:32:55.786Z,1003.60
2023-01-30T02:33:55.768Z,1003.52
2023-01-30T02:34:55.759Z,1003.59
2023-01-30T02:35:55.793Z,1003.56
2023-01-30T02:36:55.751Z,1003.59
2023-01-30T02:37:55.721Z,1003.52
2023-01-30T02:38:55.711Z,1003.59
2023-01-30T02:39:55.717Z,1003.60
2023-01-30T02:40:55.705Z,1003.66
2023-01-30T02:41:55.689Z,1003.63
2023-01-30T02:42:55.679Z,1003.55
2023-01-30T02:43:55.679Z,1003.50
2023-01-30T02:44:55.653Z,1003.47
2023-01-30T02:45:55.725Z,1003.40
2023-01-30T02:46:55.635Z,1003.28
2023-01-30T02:47:55.626Z,1003.24
2023-01-30T02:48:55.615Z,1003.25
2023-01-30T02:49:55.605Z,1003.31
2023-01-30T02:50:55.604Z,1003.48
2023-01-30T02:51:55.578Z,1003.31
2023-01-30T02:52:55.572Z,1003.29
2023-01-30T02:53:55.563Z,1003.31
2023-01-30T02:54:55.548Z,1003.19
2023-01-30T02:55:55.536Z,1003.13
2023-01-30T02:56:55.550Z,1003.04
2023-01-30T02:57:55.511Z,1002.97
2023-01-30T02:58:55.509Z,1003.07
2023-01-30T02:59:55.496Z,1003.22
2023-01-30T03:00:55.617Z,1002.97
2023-01-30T03:01:55.488Z,1002.99
2023-01-30T03:02:55.465Z,1003.15
2023-01-30T03:03:55.458Z,1002.84
2023-01-30T03:04:55.438Z,1002.81
2023-01-30T03:05:55.453Z,1002.74
2023-01-30T03:06:55.434Z,1002.87
2023-01-30T03:07:55.417Z,1002.75
2023-01-30T03:08:55.410Z,1002.73
2023-01-30T03:09:55.389Z,1002.76
2023-01-30T03:10:55.375Z,1002.80
2023-01-30T03:11:55.387Z,1002.65
2023-01-30T03:12:55.378Z,1002.72
2023-01-30T03:13:55.360Z,1002.65
2023-01-30T03:14:55.347Z,1002.64
2023-01-30T03:15:55.363Z,1002.68
2023-01-30T03:16:55.315Z,1002.70
2023-01-30T03:17:55.321Z,1002.72
2023-01-30T03:18:55.305Z,1002.79
2023-01-30T03:19:55.295Z,1002.61
2023-01-30T03:20:55.290Z,1002.62
2023-01-30T03:21:55.270Z,1002.64
2023-01-30T03:22:55.269Z,1002.57
2023-01-30T03:23:55.252Z,1002.47
2023-01-30T03:24:55.236Z,1002.38
2023-01-30T03:25:55.225Z,1002.50
2023-01-30T03:26:55.220Z,1002.53
2023-01-30T03:27:55.208Z,1002.51
2023-01-30T03:28:55.225Z,1002.52
2023-01-30T03:29:55.177Z,1002.54
2023-01-30T03:30:55.267Z,1002.48
2023-01-30T03:31:55.239Z,1002.46
2023-01-30T03:32:55.149Z,1002.46
2023-01-30T03:33:55.148Z,1002.40
2023-01-30T03:34:55.145Z,1002.39
2023-01-30T03:35:55.124Z,1002.37
2023-01-30T03:36:55.130Z,1002.31
2023-01-30T03:37:55.093Z,1002.37
2023-01-30T03:38:55.085Z,1002.33
2023-01-30T03:39:55.105Z,1002.42
2023-01-30T03:40:55.073Z,1002.39
2023-01-30T03:41:55.068Z,1002.45
2023-01-30T03:42:55.050Z,1002.42
2023-01-30T03:43:55.039Z,1002.39
2023-01-30T03:44:55.061Z,1002.37
2023-01-30T03:45:55.036Z,1002.29
2023-01-30T03:46:54.998Z,1002.38
2023-01-30T03:47:55.013Z,1002.17
2023-01-30T03:48:54.986Z,1002.20
2023-01-30T03:49:54.977Z,1002.27
2023-01-30T03:50:54.978Z,1002.16
2023-01-30T03:51:54.953Z,1002.17
2023-01-30T03:52:54.949Z,1002.05
2023-01-30T03:53:54.943Z,1002.14
2023-01-30T03:54:54.921Z,1002.19
2023-01-30T03:55:54.932Z,1002.00
2023-01-30T03:56:54.921Z,1002.01
2023-01-30T03:57:54.895Z,1001.98
2023-01-30T03:58:54.898Z,1002.01
2023-01-30T03:59:54.863Z,1001.99
2023-01-30T04:00:56.075Z,1001.95
2023-01-30T04:01:54.841Z,1001.99
2023-01-30T04:02:54.859Z,1001.88
2023-01-30T04:03:54.824Z,1001.93
2023-01-30T04:04:54.815Z,1001.86
2023-01-30T04:05:54.802Z,1001.88
2023-01-30T04:06:54.802Z,1001.84
2023-01-30T04:07:54.784Z,1001.99
2023-01-30T04:08:54.767Z,1001.87
2023-01-30T04:09:54.767Z,1001.66
2023-01-30T04:10:54.762Z,1001.71
2023-01-30T04:11:54.735Z,1001.77
2023-01-30T04:12:54.744Z,1001.75
2023-01-30T04:13:54.715Z,1001.61
2023-01-30T04:14:54.702Z,1001.69
2023-01-30T04:15:54.699Z,1001.69
2023-01-30T04:16:54.730Z,1001.62
2023-01-30T04:17:54.698Z,1001.54
2023-01-30T04:18:54.672Z,1001.60
2023-01-30T04:19:54.658Z,1001.55
2023-01-30T04:20:54.651Z,1001.51
2023-01-30T04:21:54.639Z,1001.53
2023-01-30T04:22:54.633Z,1001.55
2023-01-30T04:23:54.633Z,1001.51
2023-01-30T04:24:54.600Z,1001.47
2023-01-30T04:25:54.596Z,1001.46
2023-01-30T04:26:54.608Z,1001.44
2023-01-30T04:27:54.578Z,1001.48
2023-01-30T04:28:54.557Z,1001.51
2023-01-30T04:29:54.555Z,1001.56
2023-01-30T04:30:54.639Z,1001.57
2023-01-30T04:31:54.525Z,1001.47
2023-01-30T04:32:54.565Z,1001.39
2023-01-30T04:33:54.544Z,1001.44
2023-01-30T04:34:54.493Z,1001.33
2023-01-30T04:35:54.491Z,1001.37
2023-01-30T04:36:54.481Z,1001.66
2023-01-30T04:37:54.471Z,1001.29
2023-01-30T04:38:54.449Z,1001.32
2023-01-30T04:39:54.456Z,1001.29
2023-01-30T04:40:54.428Z,1001.26
2023-01-30T04:41:54.421Z,1001.27
2023-01-30T04:42:54.417Z,1001.35
2023-01-30T04:43:54.413Z,1001.30
2023-01-30T04:44:54.395Z,1001.21
2023-01-30T04:45:54.390Z,1001.26
2023-01-30T04:46:54.368Z,1001.32
2023-01-30T04:47:54.359Z,1001.26
2023-01-30T04:48:54.357Z,1001.28
2023-01-30T04:49:54.343Z,1001.15
2023-01-30T04:50:54.350Z,1001.19
2023-01-30T04:51:54.313Z,1001.09
2023-01-30T04:52:54.300Z,1001.12
2023-01-30T04:53:54.295Z,1001.08
2023-01-30T04:54:54.290Z,1001.16
2023-01-30T04:55:54.305Z,1001.08
2023-01-30T04:56:54.258Z,1001.09
2023-01-30T04:57:54.255Z,1001.03
2023-01-30T04:58:54.238Z,1000.95
2023-01-30T04:59:54.244Z,1000.98
2023-01-30T05:00:54.264Z,1000.94
2023-01-30T05:01:54.278Z,1000.91
2023-01-30T05:02:54.200Z,1000.95
2023-01-30T05:03:54.192Z,1001.05
2023-01-30T05:04:54.195Z,1000.95
2023-01-30T05:05:54.171Z,1000.88
2023-01-30T05:06:54.146Z,1000.93
2023-01-30T05:07:54.154Z,1000.91
2023-01-30T05:08:54.130Z,1000.87
2023-01-30T05:09:54.123Z,1000.85
2023-01-30T05:10:54.105Z,1000.90
2023-01-30T05:11:54.121Z,1000.86
2023-01-30T05:12:54.084Z,1000.91
2023-01-30T05:13:54.078Z,1000.97
2023-01-30T05:14:54.070Z,1000.79
2023-01-30T05:15:54.065Z,1000.79
2023-01-30T05:16:54.068Z,1000.80
2023-01-30T05:17:54.043Z,1000.70
2023-01-30T05:18:54.042Z,1000.69
2023-01-30T05:19:54.015Z,1000.88
2023-01-30T05:20:54.019Z,1000.71
2023-01-30T05:21:54.005Z,1000.72
2023-01-30T05:22:53.989Z,1000.68
2023-01-30T05:23:53.987Z,1000.62
2023-01-30T05:24:53.959Z,1000.71
2023-01-30T05:25:53.978Z,1000.72
2023-01-30T05:26:53.944Z,1000.65
2023-01-30T05:27:53.930Z,1000.71
2023-01-30T05:28:53.926Z,1000.68
2023-01-30T05:29:53.904Z,1000.71
2023-01-30T05:30:53.936Z,1000.65
2023-01-30T05:31:53.905Z,1000.57
2023-01-30T05:32:53.895Z,1000.50
2023-01-30T05:33:53.883Z,1000.61
2023-01-30T05:34:53.873Z,1000.49
2023-01-30T05:35:53.852Z,1000.45
2023-01-30T05:36:53.877Z,1000.49
2023-01-30T05:37:53.818Z,1000.43
2023-01-30T05:38:53.836Z,1000.40
2023-01-30T05:40:02.865Z,1000.40
2023-01-30T05:40:53.788Z,1000.41
2023-01-30T05:41:53.774Z,1000.43
2023-01-30T05:42:53.774Z,1000.56
2023-01-30T05:43:53.787Z,1000.38
2023-01-30T05:44:53.747Z,1000.42
2023-01-30T05:45:53.737Z,1000.39
2023-01-30T05:46:53.802Z,1000.30
2023-01-30T05:47:56.414Z,1000.25
2023-01-30T05:48:53.708Z,1000.30
2023-01-30T05:49:53.716Z,1000.31
2023-01-30T05:50:53.676Z,1000.31
2023-01-30T05:51:53.676Z,1000.34
2023-01-30T05:52:53.684Z,1000.29
2023-01-30T05:53:53.662Z,1000.20
2023-01-30T05:54:53.644Z,1000.13
2023-01-30T05:55:53.633Z,1000.12
2023-01-30T05:56:53.620Z,1000.13
2023-01-30T05:57:53.604Z,999.96
2023-01-30T05:58:53.614Z,1000.12
2023-01-30T05:59:53.619Z,1000.06
2023-01-30T06:00:53.587Z,1000.02
2023-01-30T06:01:53.570Z,1000.05
2023-01-30T06:02:53.623Z,1000.00
2023-01-30T06:03:53.605Z,999.91
2023-01-30T06:04:53.567Z,999.90
2023-01-30T06:05:53.552Z,999.90
2023-01-30T06:06:53.550Z,999.91
2023-01-30T06:07:53.501Z,999.97
2023-01-30T06:08:53.520Z,999.94
2023-01-30T06:09:53.486Z,999.92
2023-01-30T06:10:53.492Z,999.89
2023-01-30T06:11:53.477Z,1000.02
2023-01-30T06:12:53.467Z,999.93
2023-01-30T06:13:53.487Z,999.97
2023-01-30T06:14:53.432Z,1000.03
2023-01-30T06:15:53.533Z,999.92
2023-01-30T06:16:53.485Z,999.97
2023-01-30T06:17:53.403Z,1000.00
2023-01-30T06:18:53.469Z,1000.00
2023-01-30T06:19:53.385Z,999.96
2023-01-30T06:20:53.369Z,999.93
2023-01-30T06:21:53.381Z,999.93
2023-01-30T06:22:53.391Z,999.85
2023-01-30T06:23:53.350Z,1000.02
2023-01-30T06:24:53.340Z,999.94
2023-01-30T06:25:53.317Z,999.99
2023-01-30T06:26:53.871Z,999.91
2023-01-30T06:27:53.331Z,999.99
2023-01-30T06:28:53.291Z,999.88
2023-01-30T06:29:53.270Z,999.93
2023-01-30T06:30:53.372Z,1000.01
2023-01-30T06:31:53.254Z,999.93
2023-01-30T06:32:53.235Z,999.95
2023-01-30T06:33:53.247Z,999.93
2023-01-30T06:34:53.226Z,999.93
2023-01-30T06:35:53.283Z,1000.00
2023-01-30T06:36:53.191Z,1000.02
2023-01-30T06:37:53.179Z,999.94
2023-01-30T06:38:53.182Z,1000.03
2023-01-30T06:39:53.182Z,1000.14
2023-01-30T06:40:53.178Z,1000.06
2023-01-30T06:41:53.143Z,1000.07
2023-01-30T06:42:53.157Z,999.99
2023-01-30T06:43:53.124Z,1000.06
2023-01-30T06:44:53.127Z,1000.03
2023-01-30T06:45:53.197Z,1000.13
2023-01-30T06:46:53.083Z,1000.07
2023-01-30T06:47:53.127Z,999.98
2023-01-30T06:48:53.067Z,999.98
2023-01-30T06:49:53.061Z,1000.00
2023-01-30T06:50:53.059Z,1000.00
2023-01-30T06:51:53.062Z,999.98
2023-01-30T06:52:53.041Z,999.99
2023-01-30T06:53:53.426Z,999.94
2023-01-30T06:54:53.019Z,1000.00
2023-01-30T06:55:52.993Z,999.92
2023-01-30T06:56:53.007Z,999.90
2023-01-30T06:57:52.973Z,999.91
2023-01-30T06:58:52.959Z,999.84
2023-01-30T06:59:52.951Z,999.79
2023-01-30T07:00:52.945Z,999.80
2023-01-30T07:01:52.983Z,999.75
2023-01-30T07:02:52.911Z,999.75
2023-01-30T07:03:52.965Z,999.66
2023-01-30T07:04:52.902Z,999.64
2023-01-30T07:05:52.975Z,999.72
2023-01-30T07:06:52.887Z,999.76
2023-01-30T07:07:52.864Z,999.72
2023-01-30T07:08:52.850Z,999.79
2023-01-30T07:10:06.996Z,999.76
2023-01-30T07:10:53.882Z,999.70
2023-01-30T07:11:52.824Z,999.73
2023-01-30T07:12:52.838Z,999.74
2023-01-30T07:13:52.866Z,999.71
2023-01-30T07:14:52.797Z,999.79
2023-01-30T07:15:52.825Z,999.64
2023-01-30T07:16:52.815Z,999.77
2023-01-30T07:17:52.963Z,999.70
2023-01-30T07:18:52.754Z,999.55
2023-01-30T07:19:52.743Z,999.63
2023-01-30T07:20:52.822Z,999.64
2023-01-30T07:21:52.734Z,999.59
2023-01-30T07:22:53.333Z,999.67
2023-01-30T07:23:52.703Z,999.70
2023-01-30T07:24:52.752Z,999.60
2023-01-30T07:25:52.708Z,999.62
2023-01-30T07:26:52.712Z,999.59
2023-01-30T07:27:52.698Z,999.51
2023-01-30T07:28:52.784Z,999.48
2023-01-30T07:29:53.404Z,999.52
2023-01-30T07:30:52.785Z,999.49
2023-01-30T07:31:52.713Z,999.59
2023-01-30T07:32:52.608Z,999.59
2023-01-30T07:33:52.648Z,999.49
2023-01-30T07:34:52.590Z,999.55
2023-01-30T07:35:52.582Z,999.44
2023-01-30T07:36:52.734Z,999.53
2023-01-30T07:37:52.660Z,999.58
2023-01-30T07:38:52.551Z,999.45
2023-01-30T07:39:52.526Z,999.58
2023-01-30T07:40:52.518Z,999.59
2023-01-30T07:41:52.502Z,999.51
2023-01-30T07:42:52.491Z,999.56
2023-01-30T07:43:52.507Z,999.58
2023-01-30T07:44:52.511Z,999.62
2023-01-30T07:45:52.485Z,999.63
2023-01-30T07:46:52.484Z,999.55
2023-01-30T07:47:52.434Z,999.54
2023-01-30T07:48:52.441Z,999.65
2023-01-30T07:49:52.422Z,999.72
2023-01-30T07:50:52.427Z,999.68
2023-01-30T07:51:52.455Z,999.60
2023-01-30T07:52:52.396Z,999.66
2023-01-30T07:53:52.407Z,999.68
2023-01-30T07:54:52.417Z,999.59
2023-01-30T07:55:52.365Z,999.64
2023-01-30T07:56:52.339Z,999.71
2023-01-30T07:57:52.344Z,999.67
2023-01-30T07:58:52.369Z,999.75
2023-01-30T07:59:52.316Z,999.70
2023-01-30T08:00:52.365Z,999.74
2023-01-30T08:01:52.287Z,999.71
2023-01-30T08:02:52.286Z,999.64
2023-01-30T08:03:52.281Z,999.76
2023-01-30T08:04:52.366Z,999.72
2023-01-30T08:05:52.259Z,999.87
2023-01-30T08:06:52.877Z,999.79
2023-01-30T08:07:52.233Z,999.64
2023-01-30T08:08:52.218Z,999.66
2023-01-30T08:09:52.249Z,999.68
2023-01-30T08:10:52.191Z,999.77
2023-01-30T08:11:52.189Z,999.71
2023-01-30T08:12:52.186Z,999.74
2023-01-30T08:13:52.176Z,999.66
2023-01-30T08:14:52.178Z,999.68
2023-01-30T08:15:52.170Z,999.69
2023-01-30T08:16:52.255Z,999.77
2023-01-30T08:17:52.145Z,999.78
2023-01-30T08:18:52.246Z,999.67
2023-01-30T08:19:52.422Z,999.70
2023-01-30T08:20:52.305Z,999.72
2023-01-30T08:21:52.133Z,999.67
2023-01-30T08:22:52.856Z,999.69
2023-01-30T08:23:52.273Z,999.70
2023-01-30T08:24:52.196Z,999.70
2023-01-30T08:25:52.651Z,999.56
2023-01-30T08:26:52.871Z,999.57
2023-01-30T08:27:52.130Z,999.60
2023-01-30T08:28:52.136Z,999.57
2023-01-30T08:29:52.015Z,999.55
2023-01-30T08:30:52.116Z,999.57
2023-01-30T08:31:52.024Z,999.65
2023-01-30T08:32:51.977Z,999.47
2023-01-30T08:33:51.967Z,999.47
2023-01-30T08:34:51.965Z,999.51
2023-01-30T08:35:51.943Z,999.50
2023-01-30T08:36:51.951Z,999.51
2023-01-30T08:37:51.951Z,999.55
2023-01-30T08:38:51.909Z,999.57
2023-01-30T08:39:51.904Z,999.56
2023-01-30T08:40:51.894Z,999.59
2023-01-30T08:41:51.901Z,999.63
2023-01-30T08:42:51.858Z,999.64
2023-01-30T08:43:51.857Z,999.64
2023-01-30T08:44:51.839Z,999.53
2023-01-30T08:45:51.846Z,999.63
2023-01-30T08:46:51.842Z,999.61
2023-01-30T08:47:51.842Z,999.60
2023-01-30T08:48:51.827Z,999.68
2023-01-30T08:49:51.786Z,999.64
2023-01-30T08:50:51.772Z,999.69
2023-01-30T08:51:51.782Z,999.72
2023-01-30T08:52:52.256Z,999.67
2023-01-30T08:53:51.916Z,999.73
2023-01-30T08:54:51.739Z,999.75
2023-01-30T08:55:51.773Z,999.69
2023-01-30T08:56:51.781Z,999.72
2023-01-30T08:57:51.763Z,999.67
2023-01-30T08:58:51.739Z,999.69
2023-01-30T08:59:51.673Z,999.64
2023-01-30T09:00:52.442Z,999.63
2023-01-30T09:01:51.695Z,999.67
2023-01-30T09:02:52.495Z,999.68
2023-01-30T09:03:51.895Z,999.64
2023-01-30T09:04:51.660Z,999.66
2023-01-30T09:05:51.627Z,999.54
2023-01-30T09:06:51.712Z,999.78
2023-01-30T09:07:51.628Z,999.58
2023-01-30T09:08:51.589Z,999.61
2023-01-30T09:09:51.584Z,999.62
2023-01-30T09:10:51.577Z,999.61
2023-01-30T09:11:51.567Z,999.57
2023-01-30T09:12:51.550Z,999.63
2023-01-30T09:13:51.559Z,999.61
2023-01-30T09:14:51.557Z,999.51
2023-01-30T09:15:51.511Z,999.55
2023-01-30T09:16:51.553Z,999.60
2023-01-30T09:17:51.490Z,999.63
2023-01-30T09:18:51.476Z,999.62
2023-01-30T09:19:51.478Z,999.66
2023-01-30T09:20:52.793Z,999.62
2023-01-30T09:21:51.456Z,999.67
2023-01-30T09:22:51.446Z,999.59
2023-01-30T09:23:51.458Z,999.61
2023-01-30T09:24:51.443Z,999.72
2023-01-30T09:25:51.415Z,999.66
2023-01-30T09:26:51.399Z,999.74
2023-01-30T09:27:51.386Z,999.76
2023-01-30T09:28:51.414Z,999.71
2023-01-30T09:29:51.366Z,999.71
2023-01-30T09:30:51.442Z,999.73
2023-01-30T09:31:51.354Z,999.69
2023-01-30T09:32:51.326Z,999.79
2023-01-30T09:33:51.318Z,999.68
2023-01-30T09:34:51.334Z,999.69
2023-01-30T09:35:51.345Z,999.73
2023-01-30T09:36:51.318Z,999.72
2023-01-30T09:37:51.288Z,999.61
2023-01-30T09:38:51.273Z,999.80
2023-01-30T09:39:51.260Z,999.67
2023-01-30T09:40:51.278Z,999.75
2023-01-30T09:41:51.241Z,999.75
2023-01-30T09:42:51.236Z,999.70
2023-01-30T09:43:51.223Z,999.73
2023-01-30T09:44:51.226Z,999.76
2023-01-30T09:45:51.246Z,999.79
2023-01-30T09:46:51.203Z,999.77
2023-01-30T09:47:51.176Z,999.72
2023-01-30T09:48:51.165Z,999.68
2023-01-30T09:49:51.170Z,999.64
2023-01-30T09:50:51.170Z,999.67
2023-01-30T09:51:51.139Z,999.72
2023-01-30T09:52:51.148Z,999.68
2023-01-30T09:53:51.101Z,999.65
2023-01-30T09:54:51.102Z,999.58
2023-01-30T09:55:51.093Z,999.68
2023-01-30T09:56:51.093Z,999.59
2023-01-30T09:57:51.065Z,999.69
2023-01-30T09:58:51.085Z,999.68
2023-01-30T09:59:51.029Z,999.57
2023-01-30T10:00:51.027Z,999.62
2023-01-30T10:01:51.038Z,999.60
2023-01-30T10:02:51.018Z,999.68
2023-01-30T10:03:51.025Z,999.64
2023-01-30T10:05:00.974Z,999.64
2023-01-30T10:05:52.005Z,999.67
2023-01-30T10:06:50.968Z,999.59
2023-01-30T10:07:51.015Z,999.61
2023-01-30T10:08:50.975Z,999.69
2023-01-30T10:09:50.990Z,999.60
2023-01-30T10:11:00.737Z,999.66
2023-01-30T10:11:51.923Z,999.62
2023-01-30T10:12:50.917Z,999.70
2023-01-30T10:13:50.922Z,999.55
2023-01-30T10:14:50.897Z,999.61
2023-01-30T10:15:50.935Z,999.65
2023-01-30T10:16:50.924Z,999.63
2023-01-30T10:17:50.860Z,999.65
2023-01-30T10:18:50.840Z,999.62
2023-01-30T10:19:50.848Z,999.51
2023-01-30T10:20:50.864Z,999.55
2023-01-30T10:21:50.841Z,999.53
2023-01-30T10:22:50.805Z,999.68
2023-01-30T10:23:50.795Z,999.53
2023-01-30T10:24:50.894Z,999.64
2023-01-30T10:25:50.798Z,999.56
2023-01-30T10:26:50.884Z,999.66
2023-01-30T10:27:50.763Z,999.58
2023-01-30T10:28:58.853Z,999.77
2023-01-30T10:29:51.765Z,999.65
2023-01-30T10:30:50.810Z,999.71
2023-01-30T10:31:50.752Z,999.61
2023-01-30T10:32:50.706Z,999.75
2023-01-30T10:33:50.719Z,999.79
2023-01-30T10:34:50.735Z,999.64
2023-01-30T10:35:50.688Z,999.70
2023-01-30T10:36:50.733Z,999.54
2023-01-30T10:37:50.677Z,999.63
2023-01-30T10:38:50.669Z,999.58
2023-01-30T10:39:55.169Z,999.55
2023-01-30T10:40:50.611Z,999.51
2023-01-30T10:41:50.594Z,999.59
2023-01-30T10:42:50.681Z,999.50
2023-01-30T10:43:50.604Z,999.54
2023-01-30T10:44:50.569Z,999.47
2023-01-30T10:45:50.555Z,999.40
2023-01-30T10:46:50.652Z,999.47
2023-01-30T10:47:50.545Z,999.47
2023-01-30T10:48:50.549Z,999.44
2023-01-30T10:49:50.539Z,999.48
2023-01-30T10:50:51.386Z,999.43
2023-01-30T10:51:50.502Z,999.42
2023-01-30T10:52:50.471Z,999.43
2023-01-30T10:53:50.503Z,999.60
2023-01-30T10:54:50.469Z,999.44
2023-01-30T10:55:50.473Z,999.40
2023-01-30T10:56:50.449Z,999.39
2023-01-30T10:57:50.480Z,999.44
2023-01-30T10:58:50.407Z,999.47
2023-01-30T10:59:50.416Z,999.44
2023-01-30T11:00:50.484Z,999.37
2023-01-30T11:01:50.454Z,999.49
2023-01-30T11:02:51.791Z,999.33
2023-01-30T11:03:50.353Z,999.33
2023-01-30T11:04:50.375Z,999.49
2023-01-30T11:05:50.330Z,999.34
2023-01-30T11:06:50.360Z,999.29
2023-01-30T11:07:50.314Z,999.22
2023-01-30T11:08:50.302Z,999.33
2023-01-30T11:09:50.300Z,999.21
2023-01-30T11:10:50.310Z,999.25
2023-01-30T11:11:50.295Z,999.21
2023-01-30T11:12:50.279Z,999.20
2023-01-30T11:13:50.283Z,999.19
2023-01-30T11:14:50.254Z,999.25
2023-01-30T11:15:50.246Z,999.17
2023-01-30T11:16:50.229Z,999.23
2023-01-30T11:17:50.229Z,999.23
2023-01-30T11:19:18.742Z,999.27
2023-01-30T11:19:51.182Z,999.15
2023-01-30T11:20:50.162Z,999.20
2023-01-30T11:21:50.200Z,999.08
2023-01-30T11:22:50.171Z,999.06
2023-01-30T11:23:50.159Z,999.01
2023-01-30T11:24:50.138Z,998.92
2023-01-30T11:25:59.230Z,998.87
2023-01-30T11:26:51.169Z,998.94
2023-01-30T11:27:50.092Z,998.96
2023-01-30T11:28:50.144Z,998.90
2023-01-30T11:29:50.082Z,998.94
2023-01-30T11:30:50.070Z,998.83
2023-01-30T11:31:50.172Z,998.79
2023-01-30T11:32:50.062Z,998.78
2023-01-30T11:33:50.029Z,998.75
2023-01-30T11:34:50.016Z,998.74
2023-01-30T11:35:50.014Z,998.70
2023-01-30T11:36:49.991Z,998.69
2023-01-30T11:37:50.034Z,998.72
2023-01-30T11:38:49.972Z,998.65
2023-01-30T11:39:49.955Z,998.70
2023-01-30T11:40:49.966Z,998.68
2023-01-30T11:41:49.969Z,998.73
2023-01-30T11:42:49.932Z,998.59
2023-01-30T11:43:49.948Z,998.66
2023-01-30T11:44:49.923Z,998.64
2023-01-30T11:45:49.989Z,998.70
2023-01-30T11:46:49.897Z,998.69
2023-01-30T11:47:57.850Z,998.60
2023-01-30T11:49:02.596Z,998.59
2023-01-30T11:49:52.633Z,998.59
2023-01-30T11:50:50.908Z,998.56
2023-01-30T11:51:49.825Z,998.53
2023-01-30T11:52:49.847Z,998.50
2023-01-30T11:53:49.887Z,998.58
2023-01-30T11:54:49.811Z,998.43
2023-01-30T11:56:02.155Z,998.48
2023-01-30T11:56:50.807Z,998.37
2023-01-30T11:57:49.852Z,998.37
2023-01-30T11:58:49.783Z,998.47
2023-01-30T11:59:49.754Z,998.45
2023-01-30T12:00:49.749Z,998.40
2023-01-30T12:01:49.757Z,998.38
2023-01-30T12:02:50.439Z,998.38
2023-01-30T12:03:49.744Z,998.30
2023-01-30T12:04:49.694Z,998.32
2023-01-30T12:05:49.689Z,998.35
2023-01-30T12:06:49.685Z,998.41
2023-01-30T12:07:49.668Z,998.50
2023-01-30T12:08:49.684Z,998.63
2023-01-30T12:09:49.646Z,998.81
2023-01-30T12:10:49.639Z,998.81
2023-01-30T12:11:49.626Z,998.72
2023-01-30T12:12:49.607Z,998.44
2023-01-30T12:13:49.601Z,998.34
2023-01-30T12:14:49.635Z,998.42
2023-01-30T12:15:49.567Z,998.46
2023-01-30T12:16:49.578Z,998.42
2023-01-30T12:17:49.552Z,998.48